Terminal Aerodrome Forecast
Issued by NWS

Home | Current Version | Previous Version | Text Only | Print | Product List | Glossary On
Versions: 1 2 3 4 5 6 7 8 9 10 11 12 13 14 15 16 17 18 19 20 21 22
600
FTUS41 KPBZ 281128
TAFZZV
TAF
KZZV 281128Z 2812/0112 16004KT P6SM BKN100
     FM281400 16007KT 6SM -RA OVC050
     FM281600 18008KT 4SM -RA OVC020
     FM281900 19012KT 6SM -RA OVC010
     FM010100 20012KT P6SM OVC025 WS020/24050KT=

USA.gov is the U.S. government's official web portal to all federal, state and local government web resources and services.